Time;durP1;ratioP1;P1;durP2;ratioP2;P2;SDS_P1;SDS_P2;PMS_P1;PMS_P2;Temp;Humidity;BMP_temperature;BMP_pressure;BME280_temperature;BME280_humidity;BME280_pressure;Samples;Min_cycle;Max_cycle;Signal;HPM_P1;HPM_P2
2023/08/02 00:00:20;;;;;;;3.20;2.90;;;;;;;14.74;100.00;99361.75;5013674;28;20056;-81
2023/08/02 00:02:45;;;;;;;7.23;2.90;;;;;;;14.67;100.00;99345.69;5018813;28;20026;-81
2023/08/02 00:05:10;;;;;;;4.87;3.63;;;;;;;14.65;100.00;99350.47;5013032;28;20025;-82
2023/08/02 00:07:36;;;;;;;7.07;2.80;;;;;;;14.71;100.00;99363.00;5011030;28;20340;-81
2023/08/02 00:10:03;;;;;;;6.87;4.20;;;;;;;14.69;100.00;99356.22;5009594;28;20435;-82
2023/08/02 00:12:28;;;;;;;6.90;4.45;;;;;;;14.63;100.00;99354.41;5006589;28;20038;-83
2023/08/02 00:14:54;;;;;;;9.00;5.00;;;;;;;14.62;100.00;99355.47;5012741;28;20048;-83
2023/08/02 00:17:19;;;;;;;9.60;4.77;;;;;;;14.62;100.00;99358.16;5008199;28;20038;-82
2023/08/02 00:19:44;;;;;;;10.00;6.17;;;;;;;14.63;100.00;99354.41;5015976;28;20029;-83
2023/08/02 00:22:10;;;;;;;9.77;6.10;;;;;;;14.74;100.00;99356.38;5012236;28;20033;-83
2023/08/02 00:24:35;;;;;;;10.10;6.83;;;;;;;14.64;100.00;99364.13;5026405;28;20091;-82
2023/08/02 00:27:00;;;;;;;11.03;6.77;;;;;;;14.54;100.00;99357.41;5009776;28;20077;-84
2023/08/02 00:29:26;;;;;;;10.07;6.70;;;;;;;14.53;100.00;99358.41;4993066;28;20045;-82
2023/08/02 00:31:51;;;;;;;11.52;6.80;;;;;;;14.50;100.00;99358.03;5015866;28;20254;-82
2023/08/02 00:34:17;;;;;;;8.40;6.00;;;;;;;14.49;100.00;99356.38;4989506;28;20461;-82
2023/08/02 00:36:43;;;;;;;14.38;6.43;;;;;;;14.54;100.00;99356.59;5006024;28;20053;-82
2023/08/02 00:39:09;;;;;;;10.53;6.10;;;;;;;14.55;100.00;99359.03;5010245;28;20056;-81
2023/08/02 00:41:34;;;;;;;;;;;;;;;14.61;100.00;99364.56;5009092;28;20062;-82
2023/08/02 00:44:00;;;;;;;8.93;6.47;;;;;;;14.53;100.00;99365.66;5000155;28;19951;-81
2023/08/02 00:46:27;;;;;;;11.20;6.03;;;;;;;14.58;100.00;99363.13;5011613;28;20080;-83
2023/08/02 00:48:52;;;;;;;10.00;5.65;;;;;;;14.47;100.00;99362.00;5028346;28;20107;-81
2023/08/02 00:51:19;;;;;;;5.90;5.30;;;;;;;14.55;100.00;99368.97;5010525;28;20626;-80
2023/08/02 00:53:46;;;;;;;11.15;6.85;;;;;;;14.51;100.00;99370.41;5008055;28;20025;-81
2023/08/02 00:56:13;;;;;;;8.60;5.90;;;;;;;14.56;100.00;99375.97;5007987;28;20390;-80
2023/08/02 00:58:39;;;;;;;15.32;6.68;;;;;;;14.55;100.00;99371.66;5002462;28;20049;-81
2023/08/02 01:01:07;;;;;;;9.27;6.63;;;;;;;14.52;100.00;99372.88;5007883;28;20474;-82
2023/08/02 01:03:37;;;;;;;7.93;6.88;;;;;;;14.57;100.00;99369.56;5016706;28;20053;-78
2023/08/02 01:06:34;;;;;;;9.15;5.97;;;;;;;14.53;100.00;99365.66;5011798;28;20037;-79
2023/08/02 01:09:33;;;;;;;8.27;6.28;;;;;;;14.55;100.00;99371.66;5018163;28;20038;-81
2023/08/02 01:12:07;;;;;;;11.27;6.97;;;;;;;14.54;100.00;99373.53;4950432;28;20721;-81
2023/08/02 01:14:36;;;;;;;12.00;7.25;;;;;;;14.55;100.00;99377.03;4962661;28;20105;-77
2023/08/02 01:17:03;;;;;;;10.80;7.22;;;;;;;14.50;100.00;99371.47;4929552;28;20102;-80
2023/08/02 01:19:28;;;;;;;14.48;7.85;;;;;;;14.56;100.00;99379.50;4966961;28;20050;-81
2023/08/02 01:21:54;;;;;;;15.98;7.65;;;;;;;14.55;100.00;99369.78;4942676;28;20045;-81
2023/08/02 01:24:21;;;;;;;11.37;7.07;;;;;;;14.58;100.00;99379.25;4945740;29;20106;-80
2023/08/02 01:26:48;;;;;;;13.25;7.43;;;;;;;14.54;100.00;99370.84;4948091;28;20023;-79
2023/08/02 01:29:19;;;;;;;9.38;7.40;;;;;;;14.52;100.00;99364.00;4966644;28;20042;-80
2023/08/02 01:31:46;;;;;;;9.20;6.82;;;;;;;14.52;100.00;99370.19;4947365;28;20081;-82
2023/08/02 01:34:12;;;;;;;14.00;6.53;;;;;;;14.52;100.00;99366.69;4942911;28;20080;-80
2023/08/02 01:36:37;;;;;;;32.67;6.38;;;;;;;14.52;100.00;99364.81;4966440;28;20903;-79
2023/08/02 01:39:03;;;;;;;10.77;7.28;;;;;;;14.40;100.00;99368.44;4939948;29;20035;-80
2023/08/02 01:41:28;;;;;;;10.50;6.40;;;;;;;14.47;100.00;99371.88;4941149;28;20043;-80
2023/08/02 01:43:53;;;;;;;14.50;6.63;;;;;;;14.42;100.00;99356.47;4944078;28;20566;-78
2023/08/02 01:46:19;;;;;;;10.63;6.80;;;;;;;14.46;100.00;99373.75;4965807;28;20508;-82
2023/08/02 01:48:44;;;;;;;7.87;5.23;;;;;;;14.47;100.00;99361.16;4999989;28;20050;-80
2023/08/02 01:51:09;;;;;;;9.67;5.37;;;;;;;14.47;100.00;99363.84;5026520;28;20026;-80
2023/08/02 01:53:35;;;;;;;7.27;5.10;;;;;;;14.43;100.00;99362.66;5010355;28;20585;-80
2023/08/02 01:56:01;;;;;;;;;;;;;;;14.40;100.00;99369.28;5018841;28;20124;-82
2023/08/02 01:58:26;;;;;;;;;;;;;;;14.47;100.00;99371.88;5016757;28;19980;-81
2023/08/02 02:00:51;;;;;;;7.30;4.00;;;;;;;14.48;100.00;99374.38;5004508;28;19921;-80
2023/08/02 02:03:17;;;;;;;10.00;4.07;;;;;;;14.47;100.00;99374.56;5008310;28;20021;-82
2023/08/02 02:05:53;;;;;;;6.30;3.47;;;;;;;14.52;100.00;99380.13;5006138;28;20069;-79
2023/08/02 02:08:19;;;;;;;5.00;3.63;;;;;;;14.51;100.00;99373.91;5013377;28;20041;-81
2023/08/02 02:10:52;;;;;;;3.15;2.85;;;;;;;14.54;100.00;99372.69;5035428;28;20103;-82
2023/08/02 02:13:19;;;;;;;2.60;2.25;;;;;;;14.59;100.00;99375.53;5021514;28;20037;-81
2023/08/02 02:15:45;;;;;;;4.45;2.88;;;;;;;14.58;100.00;99363.13;5006433;28;20028;-81
2023/08/02 02:18:10;;;;;;;4.57;2.70;;;;;;;14.57;100.00;99377.63;5016127;28;20027;-80
2023/08/02 02:20:35;;;;;;;3.13;2.40;;;;;;;14.55;100.00;99379.72;5019188;28;20104;-79
2023/08/02 02:23:01;;;;;;;4.82;2.83;;;;;;;14.49;100.00;99376.03;5019268;28;20033;-79
2023/08/02 02:25:27;;;;;;;3.93;2.17;;;;;;;14.55;100.00;99374.34;5020220;28;20553;-79
2023/08/02 02:27:52;;;;;;;3.20;2.60;;;;;;;14.53;100.00;99371.00;5008047;28;20109;-80
2023/08/02 02:30:18;;;;;;;4.17;2.10;;;;;;;14.48;100.00;99373.53;5007992;28;20118;-80
2023/08/02 02:32:43;;;;;;;2.83;2.40;;;;;;;14.53;100.00;99376.38;5001830;28;20116;-81
2023/08/02 02:35:12;;;;;;;4.07;1.73;;;;;;;14.56;100.00;99375.97;5016060;28;20030;-79
2023/08/02 02:37:40;;;;;;;1.98;1.77;;;;;;;14.53;100.00;99373.69;5040211;28;20076;-80
2023/08/02 02:40:09;;;;;;;2.90;1.90;;;;;;;14.49;100.00;99367.97;5027220;28;20390;-80
2023/08/02 02:42:38;;;;;;;2.95;2.38;;;;;;;14.48;100.00;99368.19;5035896;28;20029;-80
2023/08/02 02:45:04;;;;;;;2.92;1.90;;;;;;;14.52;100.00;99375.56;5024763;28;20040;-80
2023/08/02 02:47:30;;;;;;;3.58;1.98;;;;;;;14.56;100.00;99365.22;5007918;28;20033;-80
2023/08/02 02:49:55;;;;;;;2.60;1.90;;;;;;;14.58;100.00;99368.50;5009817;28;20529;-80
2023/08/02 02:52:21;;;;;;;2.30;1.57;;;;;;;14.49;100.00;99361.75;5030594;28;20033;-80
2023/08/02 02:54:46;;;;;;;4.30;1.95;;;;;;;14.44;100.00;99357.03;5007590;28;20538;-81
2023/08/02 02:57:11;;;;;;;8.03;2.70;;;;;;;14.49;100.00;99364.44;5007978;28;20056;-80
2023/08/02 02:59:37;;;;;;;5.83;3.20;;;;;;;14.47;100.00;99363.84;5023510;28;20041;-80
2023/08/02 03:02:02;;;;;;;2.27;2.07;;;;;;;14.50;100.00;99366.91;5014025;28;20053;-81
2023/08/02 03:04:28;;;;;;;4.23;2.50;;;;;;;14.51;100.00;99373.09;5031281;28;20061;-81
2023/08/02 03:06:53;;;;;;;8.40;3.15;;;;;;;14.49;100.00;99359.06;5023400;28;20040;-80
2023/08/02 03:09:19;;;;;;;6.53;2.70;;;;;;;14.48;100.00;99358.25;5031050;28;20560;-80
2023/08/02 03:11:45;;;;;;;6.72;2.60;;;;;;;14.49;100.00;99357.22;5023624;28;20026;-80
2023/08/02 03:14:11;;;;;;;2.65;2.45;;;;;;;14.50;100.00;99360.72;5027414;28;20471;-81
2023/08/02 03:16:37;;;;;;;4.30;2.50;;;;;;;14.42;100.00;99351.09;5011513;28;20026;-80
2023/08/02 03:19:03;;;;;;;3.97;2.53;;;;;;;14.35;100.00;99348.47;5014283;28;20044;-81
2023/08/02 03:21:28;;;;;;;3.35;2.30;;;;;;;14.36;100.00;99355.47;5017456;28;20029;-81
2023/08/02 03:23:54;;;;;;;3.30;2.37;;;;;;;14.33;100.00;99355.09;5029177;28;20044;-80
2023/08/02 03:26:19;;;;;;;5.53;2.93;;;;;;;14.31;100.00;99346.44;5027627;28;20545;-81
2023/08/02 03:28:44;;;;;;;2.97;2.63;;;;;;;14.33;100.00;99347.06;5011231;28;20030;-81
2023/08/02 03:31:10;;;;;;;3.90;2.80;;;;;;;14.25;100.00;99350.00;5030851;28;20036;-80
2023/08/02 03:33:35;;;;;;;5.77;2.53;;;;;;;14.19;100.00;99349.03;5027014;28;20026;-80
2023/08/02 03:36:00;;;;;;;6.80;2.97;;;;;;;14.27;100.00;99364.84;5014996;28;20479;-80
2023/08/02 03:38:26;;;;;;;2.07;1.87;;;;;;;14.23;100.00;99362.81;5010550;28;20018;-80
2023/08/02 03:40:52;;;;;;;3.00;2.23;;;;;;;14.22;100.00;99359.31;5015919;28;20022;-80
2023/08/02 03:43:17;;;;;;;3.08;1.98;;;;;;;14.16;100.00;99357.50;5025207;28;20441;-82
2023/08/02 03:45:42;;;;;;;5.43;2.13;;;;;;;14.18;100.00;99374.22;5010742;28;20121;-80
2023/08/02 03:48:08;;;;;;;3.00;2.03;;;;;;;14.21;100.00;99371.13;5018845;28;20051;-81
2023/08/02 03:50:34;;;;;;;2.63;2.13;;;;;;;14.22;100.00;99363.88;5013360;28;20029;-80
2023/08/02 03:52:59;;;;;;;3.28;1.75;;;;;;;14.29;100.00;99370.81;5019596;28;20061;-80
2023/08/02 03:55:25;;;;;;;4.45;1.70;;;;;;;14.28;100.00;99369.19;5031001;28;20096;-80
2023/08/02 03:57:50;;;;;;;4.20;2.00;;;;;;;14.27;100.00;99366.72;5010308;28;20029;-81
2023/08/02 04:00:15;;;;;;;4.60;1.90;;;;;;;14.32;100.00;99364.19;5010258;28;20096;-80
2023/08/02 04:02:41;;;;;;;3.10;2.20;;;;;;;14.41;100.00;99367.41;5010195;28;20148;-81
2023/08/02 04:05:06;;;;;;;2.43;1.90;;;;;;;14.40;100.00;99371.13;5013999;28;20037;-80
2023/08/02 04:07:31;;;;;;;2.37;2.00;;;;;;;14.45;100.00;99363.25;5014079;28;20030;-80
2023/08/02 04:09:57;;;;;;;4.43;2.30;;;;;;;14.29;100.00;99362.78;5019258;28;20128;-80
2023/08/02 04:12:22;;;;;;;4.90;2.80;;;;;;;14.41;100.00;99367.41;5029376;28;20479;-81
2023/08/02 04:14:47;;;;;;;4.23;3.10;;;;;;;14.32;100.00;99348.91;5021478;28;20471;-81
2023/08/02 04:17:13;;;;;;;5.20;4.00;;;;;;;14.43;100.00;99370.72;5021507;28;20053;-81
2023/08/02 04:19:38;;;;;;;9.23;4.33;;;;;;;14.43;100.00;99368.03;5010301;28;20033;-80
2023/08/02 04:22:03;;;;;;;9.60;4.13;;;;;;;14.39;100.00;99369.50;5013488;28;20034;-81
2023/08/02 04:24:30;;;;;;;8.23;5.50;;;;;;;14.48;100.00;99370.88;5009833;28;20025;-80
2023/08/02 04:26:55;;;;;;;9.32;4.95;;;;;;;14.57;100.00;99377.63;5028261;28;20017;-80
2023/08/02 04:29:21;;;;;;;9.17;5.53;;;;;;;14.66;100.00;99375.47;5024066;28;20224;-80
2023/08/02 04:31:46;;;;;;;11.27;5.20;;;;;;;14.68;100.00;99378.72;5020843;28;20064;-80
2023/08/02 04:34:11;;;;;;;6.50;5.00;;;;;;;14.69;100.00;99391.97;5015375;28;20068;-81
2023/08/02 04:36:37;;;;;;;8.40;5.70;;;;;;;14.72;100.00;99382.63;5001736;28;20032;-82
2023/08/02 04:39:03;;;;;;;8.90;6.43;;;;;;;14.74;100.00;99383.22;5015460;28;20414;-81
2023/08/02 04:41:29;;;;;;;8.25;5.53;;;;;;;14.59;100.00;99370.16;5011024;28;20025;-81
2023/08/02 04:43:55;;;;;;;12.10;6.47;;;;;;;14.58;100.00;99363.13;5013708;28;20060;-80
2023/08/02 04:46:21;;;;;;;11.40;7.05;;;;;;;14.69;100.00;99359.72;4996096;28;20025;-80
2023/08/02 04:48:47;;;;;;;11.30;7.82;;;;;;;14.68;100.00;99365.31;5006255;28;20065;-81
2023/08/02 04:51:12;;;;;;;12.33;8.13;;;;;;;14.77;100.00;99361.28;5009871;28;20049;-80
2023/08/02 04:53:42;;;;;;;13.73;7.93;;;;;;;14.67;100.00;99345.69;5018805;28;20450;-80
2023/08/02 04:56:11;;;;;;;10.65;6.93;;;;;;;14.77;100.00;99348.69;4996677;28;20128;-80
2023/08/02 04:58:36;;;;;;;13.98;7.50;;;;;;;14.71;100.00;99338.84;5008328;28;20017;-81
2023/08/02 05:01:02;;;;;;;12.20;7.07;;;;;;;14.73;100.00;99336.75;5014679;28;20044;-80
2023/08/02 05:03:28;;;;;;;;;;;;;;;14.80;100.00;99339.38;5026093;28;20044;-81
2023/08/02 05:06:00;;;;;;;8.77;7.22;;;;;;;14.83;100.00;99338.91;5014860;28;19990;-81
2023/08/02 05:08:29;;;;;;;10.82;6.85;;;;;;;14.93;100.00;99338.38;5009095;28;20072;-80
2023/08/02 05:10:54;;;;;;;11.82;6.82;;;;;;;14.90;100.00;99333.47;5008264;28;20029;-80
2023/08/02 05:13:23;;;;;;;11.93;8.23;;;;;;;14.78;100.00;99328.84;5010066;28;20034;-80
2023/08/02 05:15:48;;;;;;;14.75;8.75;;;;;;;14.81;100.00;99330.25;5029753;28;20692;-81
2023/08/02 05:18:16;;;;;;;11.95;8.60;;;;;;;14.77;100.00;99337.09;5010980;28;20026;-81
2023/08/02 05:20:42;;;;;;;15.15;9.02;;;;;;;14.75;100.00;99342.72;5007776;28;20029;-81
2023/08/02 05:23:07;;;;;;;16.20;8.97;;;;;;;14.72;100.00;99336.97;5007500;28;20425;-81
2023/08/02 05:25:34;;;;;;;15.57;8.57;;;;;;;14.81;100.00;99334.81;5005273;28;20026;-80
2023/08/02 05:28:00;;;;;;;15.40;8.63;;;;;;;14.90;100.00;99334.28;5013953;28;20730;-80
2023/08/02 05:30:30;;;;;;;12.88;7.30;;;;;;;14.91;100.00;99324.34;5007620;28;20025;-79
2023/08/02 05:32:56;;;;;;;12.57;8.32;;;;;;;14.93;100.00;99333.00;5011119;28;20041;-80
2023/08/02 05:35:23;;;;;;;14.63;8.07;;;;;;;14.97;100.00;99326.94;5024829;28;20063;-81
2023/08/02 05:37:48;;;;;;;12.63;8.18;;;;;;;14.95;100.00;99320.97;5008258;28;20045;-81
2023/08/02 05:40:16;;;;;;;10.63;8.15;;;;;;;15.06;100.00;99321.28;4992377;28;20160;-80
2023/08/02 05:42:41;;;;;;;11.83;8.60;;;;;;;14.97;100.00;99320.75;5009460;28;20374;-81
2023/08/02 05:45:07;;;;;;;11.63;8.80;;;;;;;15.01;100.00;99323.81;5007646;28;20029;-81
2023/08/02 05:47:33;;;;;;;16.13;10.05;;;;;;;15.01;100.00;99330.03;5007352;28;20037;-81
2023/08/02 05:49:59;;;;;;;10.98;7.75;;;;;;;15.03;100.00;99322.56;5012436;28;20030;-80
2023/08/02 05:52:24;;;;;;;11.70;8.52;;;;;;;15.08;100.00;99321.88;5009291;28;20365;-80
2023/08/02 05:54:50;;;;;;;13.90;7.88;;;;;;;15.17;100.00;99318.66;5025710;23;20049;-77
2023/08/02 05:57:15;;;;;;;12.03;7.90;;;;;;;15.16;100.00;99318.84;5005666;28;20041;-76
2023/08/02 05:59:40;;;;;;;19.07;8.93;;;;;;;15.18;100.00;99325.66;5028638;28;20092;-75
2023/08/02 06:02:07;;;;;;;14.20;9.10;;;;;;;15.11;100.00;99314.16;5010951;28;20762;-75
2023/08/02 06:04:36;;;;;;;;;;;;;;;15.23;100.00;99321.47;4999626;28;20052;-75
2023/08/02 06:07:03;;;;;;;16.73;9.70;;;;;;;15.25;100.00;99316.69;4993444;28;20404;-75
2023/08/02 06:09:28;;;;;;;;;;;;;;;15.32;100.00;99315.53;5000118;28;20018;-76
2023/08/02 06:11:53;;;;;;;15.25;11.05;;;;;;;15.40;100.00;99317.06;4982514;28;19920;-75
2023/08/02 06:14:19;;;;;;;11.93;9.33;;;;;;;15.38;100.00;99309.25;4985645;28;20030;-75
2023/08/02 06:16:44;;;;;;;13.03;9.47;;;;;;;15.41;100.00;99291.84;5003231;28;20034;-76
2023/08/02 06:19:09;;;;;;;12.93;8.73;;;;;;;15.50;100.00;99295.84;4988336;28;20068;-75
2023/08/02 06:21:35;;;;;;;15.63;9.43;;;;;;;15.28;100.00;99278.56;4983856;28;20117;-76
2023/08/02 06:24:01;;;;;;;17.63;10.43;;;;;;;15.43;100.00;99284.38;4980454;28;20391;-75
2023/08/02 06:26:27;;;;;;;17.45;9.50;;;;;;;15.63;100.00;99294.81;5002304;28;20065;-75
2023/08/02 06:28:52;;;;;;;11.52;8.70;;;;;;;15.70;100.00;99284.78;5004259;28;20118;-75
2023/08/02 06:31:18;;;;;;;14.23;8.00;;;;;;;16.10;100.00;99286.81;4991665;28;20445;-76
2023/08/02 06:33:43;;;;;;;9.90;7.27;;;;;;;16.92;100.00;99291.28;5007180;28;20023;-76
2023/08/02 06:36:08;;;;;;;7.10;5.90;;;;;;;17.89;100.00;99278.75;4991907;28;20096;-75
2023/08/02 06:38:34;;;;;;;6.17;4.90;;;;;;;18.58;100.00;99253.22;4988878;28;20281;-77
2023/08/02 06:40:59;;;;;;;5.73;3.80;;;;;;;18.80;100.00;99245.97;4991020;28;20092;-76
2023/08/02 06:43:25;;;;;;;8.23;3.87;;;;;;;18.73;100.00;99235.31;4986905;28;20335;-76
2023/08/02 06:45:50;;;;;;;7.47;4.87;;;;;;;17.96;100.00;99222.69;4988947;28;20057;-76
2023/08/02 06:48:18;;;;;;;7.87;4.63;;;;;;;17.40;100.00;99227.19;4988107;28;20090;-76
2023/08/02 06:50:44;;;;;;;11.55;5.35;;;;;;;16.64;100.00;99230.88;5004138;28;20029;-75
2023/08/02 06:53:09;;;;;;;8.63;5.07;;;;;;;16.66;100.00;99263.78;4996064;28;20445;-76
2023/08/02 06:55:35;;;;;;;6.67;4.87;;;;;;;16.59;100.00;99273.06;4998617;28;20280;-76
2023/08/02 06:58:00;;;;;;;8.63;5.37;;;;;;;16.36;100.00;99279.31;5004072;28;20555;-76
2023/08/02 07:00:25;;;;;;;9.20;5.47;;;;;;;16.42;100.00;99286.44;4987764;28;20598;-76
2023/08/02 07:02:51;;;;;;;5.60;4.90;;;;;;;16.40;100.00;99294.75;5003709;28;21031;-76
2023/08/02 07:05:16;;;;;;;10.00;5.97;;;;;;;16.50;100.00;99293.34;4987581;28;20569;-75
2023/08/02 07:07:42;;;;;;;5.73;4.77;;;;;;;16.44;100.00;99303.19;4988890;28;20542;-77
2023/08/02 07:10:07;;;;;;;6.17;4.80;;;;;;;16.67;100.00;99311.25;5003913;28;20293;-75
2023/08/02 07:12:32;;;;;;;6.18;4.65;;;;;;;16.68;100.00;99301.28;4987152;28;20041;-76
2023/08/02 07:14:58;;;;;;;7.47;3.73;;;;;;;16.98;100.00;99289.53;4997623;28;20044;-76
2023/08/02 07:17:23;;;;;;;8.53;4.10;;;;;;;16.78;100.00;99274.53;4997336;28;20645;-76
2023/08/02 07:19:48;;;;;;;6.47;4.30;;;;;;;16.82;100.00;99267.63;4989894;28;20405;-76
2023/08/02 07:22:17;;;;;;;8.57;4.57;;;;;;;16.82;100.00;99281.13;4976230;28;20025;-76
2023/08/02 07:24:43;;;;;;;5.07;3.15;;;;;;;16.89;100.00;99278.28;5003415;28;20037;-76
2023/08/02 07:27:09;;;;;;;6.70;3.92;;;;;;;16.99;100.00;99275.78;4991112;28;20021;-74
2023/08/02 07:29:35;;;;;;;4.50;3.10;;;;;;;16.82;100.00;99251.47;5003714;28;20046;-75
2023/08/02 07:32:01;;;;;;;7.97;2.80;;;;;;;17.32;100.00;99258.03;4994983;28;20019;-75
2023/08/02 07:34:26;;;;;;;5.13;2.27;;;;;;;17.67;100.00;99243.53;4987809;28;20033;-76
2023/08/02 07:36:51;;;;;;;11.90;3.17;;;;;;;17.46;100.00;99226.19;4988364;28;20289;-76
2023/08/02 07:39:17;;;;;;;2.70;2.20;;;;;;;17.38;100.00;99223.91;5003361;28;20034;-76
2023/08/02 07:41:42;;;;;;;3.27;2.37;;;;;;;17.07;100.00;99218.78;5003348;28;20034;-76
2023/08/02 07:44:07;;;;;;;7.37;2.53;;;;;;;16.92;100.00;99237.38;4989299;28;20038;-75
2023/08/02 07:46:33;;;;;;;3.77;2.00;;;;;;;16.77;100.00;99240.56;4978458;28;20034;-76
2023/08/02 07:48:58;;;;;;;3.27;2.23;;;;;;;16.55;100.00;99244.97;5003241;28;20030;-75
2023/08/02 07:51:23;;;;;;;14.90;3.43;;;;;;;16.48;100.00;99252.34;4988165;28;20786;-75
2023/08/02 07:53:49;;;;;;;3.40;1.70;;;;;;;16.71;100.00;99268.47;4987430;28;20037;-77
2023/08/02 07:56:14;;;;;;;2.57;1.93;;;;;;;17.07;100.00;99274.59;4986759;28;20021;-75
2023/08/02 07:58:40;;;;;;;5.20;1.77;;;;;;;17.11;100.00;99247.97;4992119;28;20962;-75
2023/08/02 08:01:07;;;;;;;10.43;2.93;;;;;;;17.05;100.00;99212.00;4989295;28;20023;-77
2023/08/02 08:03:32;;;;;;;1.23;1.13;;;;;;;17.58;100.00;99232.31;4987651;28;20030;-76
2023/08/02 08:05:58;;;;;;;4.30;1.30;;;;;;;17.75;100.00;99186.44;4988098;28;20053;-76
2023/08/02 08:08:23;;;;;;;1.80;1.47;;;;;;;17.56;100.00;99123.84;4988142;28;20494;-76
2023/08/02 08:10:52;;;;;;;3.57;1.70;;;;;;;17.90;100.00;99140.78;4986803;28;20030;-75
2023/08/02 08:13:18;;;;;;;4.90;1.30;;;;;;;18.19;100.00;99126.28;4988604;28;20041;-75
2023/08/02 08:15:44;;;;;;;2.45;1.30;;;;;;;18.00;100.00;99021.28;5002385;28;20018;-76
2023/08/02 08:18:10;;;;;;;2.10;1.35;;;;;;;18.38;100.00;99043.88;4991618;28;20065;-76
2023/08/02 08:20:35;;;;;;;2.90;1.37;;;;;;;18.21;100.00;98986.41;4998185;28;20427;-75
2023/08/02 08:23:00;;;;;;;2.00;1.30;;;;;;;19.60;100.00;99062.13;5002205;28;20037;-76
2023/08/02 08:25:26;;;;;;;3.83;1.60;;;;;;;19.13;100.00;98887.09;4986126;28;20022;-76
2023/08/02 08:27:51;;;;;;;3.83;1.13;;;;;;;19.38;100.00;98965.66;4999428;28;20131;-75
2023/08/02 08:30:16;;;;;;;1.63;1.10;;;;;;;19.57;100.00;98733.25;4998129;28;20419;-75
2023/08/02 08:32:42;;;;;;;2.90;0.87;;;;;;;18.72;100.00;98662.50;4986974;28;20407;-75
2023/08/02 08:35:09;;;;;;;3.87;0.97;;;;;;;18.66;100.00;98804.09;4996774;28;20045;-76
2023/08/02 08:37:35;;;;;;;2.58;1.27;;;;;;;18.51;100.00;98821.03;5002371;28;20030;-75
2023/08/02 08:40:00;;;;;;;1.25;0.80;;;;;;;18.75;100.00;98854.72;5001912;28;20497;-75
2023/08/02 08:42:26;;;;;;;2.53;1.10;;;;;;;19.31;100.00;98816.28;4985665;28;20622;-75
2023/08/02 08:44:53;;;;;;;0.97;0.80;;;;;;;19.52;100.00;98745.97;4996061;28;20022;-75
2023/08/02 08:47:20;;;;;;;5.75;0.98;;;;;;;19.26;100.00;98772.97;5002985;28;20493;-75
2023/08/02 08:49:46;;;;;;;5.05;1.40;;;;;;;18.98;100.00;98812.91;5002335;28;20037;-75
2023/08/02 08:52:14;;;;;;;1.98;1.23;;;;;;;19.44;100.00;98835.81;4987410;28;20559;-76
2023/08/02 08:54:42;;;;;;;2.22;1.23;;;;;;;19.02;100.00;98688.03;4986698;28;20049;-75
2023/08/02 08:57:09;;;;;;;1.60;1.20;;;;;;;19.11;100.00;98630.44;4985067;28;20034;-75
2023/08/02 08:59:35;;;;;;;;;;;;;;;19.32;100.00;98725.94;5002162;28;20022;-76
2023/08/02 09:02:01;;;;;;;2.58;1.00;;;;;;;19.36;100.00;98735.13;5005957;28;20008;-76
2023/08/02 09:04:30;;;;;;;2.95;1.10;;;;;;;18.96;100.00;98666.38;5005929;28;20084;-75
2023/08/02 09:06:55;;;;;;;1.40;1.15;;;;;;;19.53;100.00;98709.72;5004932;28;20056;-75
2023/08/02 09:09:20;;;;;;;2.20;0.90;;;;;;;20.01;100.00;98607.31;4987635;28;20648;-76
2023/08/02 09:11:46;;;;;;;3.10;1.50;;;;;;;19.71;100.00;98562.19;4986321;28;20770;-76
2023/08/02 09:14:14;;;;;;;2.93;0.90;;;;;;;19.63;100.00;98668.28;4985087;28;20022;-76
2023/08/02 09:16:58;;;;;;;4.82;1.35;;;;;;;18.83;100.00;98595.81;4986259;28;20046;-75
2023/08/02 09:19:29;;;;;;;1.67;1.00;;;;;;;18.68;100.00;98664.09;4986521;28;20034;-75
2023/08/02 09:22:12;;;;;;;2.08;1.08;;;;;;;18.77;100.00;98741.75;5004003;28;20113;-76
2023/08/02 09:24:39;;;;;;;1.73;0.95;;;;;;;18.62;100.00;98774.09;5005741;28;20498;-75
2023/08/02 09:27:19;;;;;;;2.75;0.90;;;;;;;18.59;100.00;98852.16;4996028;28;20030;-74
2023/08/02 09:29:49;;;;;;;2.33;1.33;;;;;;;19.48;100.00;98986.56;4984731;28;20026;-75
2023/08/02 09:32:17;;;;;;;2.92;1.23;;;;;;;19.64;100.00;98751.91;4967237;28;20125;-75
2023/08/02 09:34:49;;;;;;;1.70;0.75;;;;;;;19.52;100.00;98488.88;5000864;28;20117;-75
2023/08/02 09:37:16;;;;;;;2.38;0.85;;;;;;;19.14;100.00;98531.69;4994410;28;20526;-74
2023/08/02 09:39:51;;;;;;;2.53;1.08;;;;;;;19.36;100.00;98447.50;5001213;28;20122;-75
2023/08/02 09:42:20;;;;;;;6.15;1.50;;;;;;;20.06;100.00;98503.56;4992632;28;20030;-76
2023/08/02 09:44:59;;;;;;;1.75;1.00;;;;;;;20.13;100.00;98357.78;4985735;28;20651;-75
2023/08/02 09:47:28;;;;;;;4.63;1.15;;;;;;;20.05;100.00;98382.78;4991084;28;20042;-75
2023/08/02 09:50:16;;;;;;;3.08;1.20;;;;;;;20.21;100.00;98222.53;4992884;28;20018;-75
2023/08/02 09:52:41;;;;;;;3.30;1.65;;;;;;;20.31;100.00;98077.22;4994551;28;20033;-74
2023/08/02 09:55:08;;;;;;;8.00;1.07;;;;;;;20.92;100.00;98308.78;5000706;28;20030;-75
2023/08/02 09:57:33;;;;;;;;;;;;;;;20.82;100.00;98158.69;4991989;28;20387;-75
2023/08/02 10:00:07;;;;;;;1.88;1.20;;;;;;;20.86;100.00;98186.00;5004006;28;20000;-75
2023/08/02 10:02:41;;;;;;;4.30;1.35;;;;;;;21.07;100.00;97975.78;5005652;28;20187;-75
2023/08/02 10:05:12;;;;;;;1.67;1.08;;;;;;;21.67;100.00;98074.59;5004124;28;20486;-75
2023/08/02 10:07:47;;;;;;;3.08;1.30;;;;;;;20.61;100.00;97616.06;5004509;28;20041;-75
2023/08/02 10:10:19;;;;;;;2.50;1.95;;;;;;;20.16;100.00;97927.38;5009750;28;20048;-75
2023/08/02 10:12:49;;;;;;;3.10;1.30;;;;;;;19.85;100.00;97993.84;5024327;28;20033;-74
2023/08/02 10:15:16;;;;;;;1.67;1.35;;;;;;;20.05;100.00;98004.44;5009482;28;20025;-75
2023/08/02 10:17:42;;;;;;;;;;;;;;;19.80;100.00;97973.88;5010108;28;20160;-74
2023/08/02 10:20:07;;;;;;;3.30;1.70;;;;;;;20.22;100.00;98058.09;5009303;28;20008;-74
2023/08/02 10:22:36;;;;;;;4.95;1.98;;;;;;;19.82;100.00;97920.25;5009078;28;20026;-73
2023/08/02 10:25:02;;;;;;;8.73;3.80;;;;;;;19.58;100.00;98203.63;5007550;28;20042;-74
2023/08/02 10:27:28;;;;;;;6.50;2.35;;;;;;;19.45;100.00;98234.00;5008908;28;20033;-74
2023/08/02 10:29:54;;;;;;;;;;;;;;;19.49;100.00;98271.03;5008118;28;20034;-74
2023/08/02 10:32:21;;;;;;;5.65;1.70;;;;;;;19.83;100.00;98170.13;5002549;28;20445;-74
2023/08/02 10:34:51;;;;;;;3.47;2.25;;;;;;;19.98;100.00;98220.63;4980321;28;20140;-74
2023/08/02 10:37:18;;;;;;;4.40;2.28;;;;;;;19.94;100.00;98249.34;5007825;28;20137;-74
2023/08/02 10:39:51;;;;;;;2.42;2.22;;;;;;;19.77;100.00;98237.03;5008991;28;20021;-74
2023/08/02 10:42:19;;;;;;;4.15;2.40;;;;;;;20.33;100.00;98436.19;5007451;28;20045;-74
2023/08/02 10:44:54;;;;;;;5.85;2.67;;;;;;;20.04;100.00;98178.81;4998508;28;20018;-74
2023/08/02 10:47:34;;;;;;;5.57;2.70;;;;;;;20.12;100.00;98175.50;4989484;28;20096;-74
2023/08/02 10:50:01;;;;;;;2.97;2.08;;;;;;;20.30;100.00;98233.56;4987922;28;20569;-74
2023/08/02 10:52:29;;;;;;;9.85;2.40;;;;;;;20.26;100.00;98069.19;4988633;28;20881;-74
2023/08/02 10:55:04;;;;;;;5.32;3.08;;;;;;;20.13;100.00;98228.56;4988754;28;20488;-74
2023/08/02 10:57:29;;;;;;;2.25;2.05;;;;;;;20.75;100.00;98119.50;4996980;28;20038;-74
2023/08/02 10:59:56;;;;;;;7.03;2.57;;;;;;;20.34;100.00;98006.19;5007244;28;20386;-74
2023/08/02 11:02:24;;;;;;;6.65;2.42;;;;;;;20.60;100.00;98052.72;5008285;28;20293;-74
2023/08/02 11:04:49;;;;;;;4.20;2.25;;;;;;;22.24;100.00;98300.69;5008243;28;20387;-74
2023/08/02 11:07:21;;;;;;;5.47;2.13;;;;;;;21.18;100.00;97621.00;4989219;28;20031;-74
2023/08/02 11:09:54;;;;;;;5.65;2.28;;;;;;;21.45;100.00;97750.38;4988722;28;20373;-74
2023/08/02 11:12:20;;;;;;;4.68;1.85;;;;;;;21.94;100.00;97720.72;4982625;28;20474;-74
2023/08/02 11:14:49;;;;;;;4.78;1.83;;;;;;;22.25;100.00;97843.03;4985582;28;20468;-75
2023/08/02 11:17:19;;;;;;;4.05;1.80;;;;;;;20.63;100.00;97043.94;4988791;28;20121;-73
2023/08/02 11:19:49;;;;;;;5.28;3.03;;;;;;;20.48;100.00;97508.47;4988253;28;20053;-74
2023/08/02 11:22:15;;;;;;;3.65;1.55;;;;;;;20.04;100.00;97583.09;4999028;28;20387;-74